Tropical Cyclones
[Index]
Main Index Home Page Stock Weather Photos Extreme Storms Discussion Storm News and Storm Chasing Reports Tropical Cyclones / Hurricanes / Typhoons Weather Data and Links Wild Fires / Bushfires Weather Observation Techniques Weather Picture Catalogue Tornado Pictures and Reports Stock Video Footage and DVDs for sale
Season 1973-1974 Tropical Cyclone ANNIE Track Map
Season 1973-1974 Summaries: [BoM-AU] [JTWC-AU] [JTWC-SIO] [JTWC-SPAC] [JTWC-SH]
<<- Previous TC | BoM 1973-1974 Season | Next TC ->>

click for intensity scale information  Lat/long Grid: Show Hide

 Date Labels: Show Hide

Bureau of Meteorology Tropical Cyclone Data

Name: ANNIE
Number: 512 / 197374_02

21 Nov 1973 00:00 UTC to 08 Dec 1973 00:00 UTC

    date/time    lat    long    hPa   cat  kts
1973-11-21 00    9.0    91.0   1006                     
1973-11-21 03    9.3    91.2   1005                     
1973-11-21 06    9.6    91.4   1003                     
1973-11-21 09    9.8    91.5   1001                     
1973-11-21 12   10.0    91.6   1003                     
1973-11-21 15   10.2    91.7   1005                     
1973-11-21 18   10.4    91.8   1004                     
1973-11-21 21   10.6    91.9   1005                     
1973-11-22 00   10.8    92.1   1004                     
1973-11-22 03   10.9    92.3   1002                     
1973-11-22 06   11.0    92.6   1001                     
1973-11-22 09   11.0    92.8   1000                     
1973-11-22 12   11.1    93.1   1002                     
1973-11-22 15   11.1    93.4   1004                     
1973-11-22 18   11.1    93.7   1003                     
1973-11-22 21   11.1    94.0   1003                     
1973-11-23 00   11.1    94.2   1003                     
1973-11-23 03   11.1    94.4   1001                     
1973-11-23 06   11.1    94.6   1000                     
1973-11-23 09   11.1    94.8    999                     
1973-11-23 12   11.2    95.0   1002                     
1973-11-23 15   11.2    95.2   1003                     
1973-11-23 18   11.3    95.4   1002                     
1973-11-23 21   11.4    95.6   1003                     
1973-11-24 00   11.5    95.7   1003                     
1973-11-24 03   11.5    95.8   1001                     
1973-11-24 06   11.6    96.0    999                     
1973-11-24 09   11.6    96.2    997                     
1973-11-24 12   11.7    96.3    998                     
1973-11-24 15   11.8    96.4    998                     
1973-11-24 18   11.9    96.5    996                     
1973-11-24 21   12.0    96.6    995    1                
1973-11-25 00   12.1    96.7    994    1                
1973-11-25 03   12.2    96.8    994    1                
1973-11-25 06   12.2    96.9    994    1                
1973-11-25 09   12.3    97.0    994    1                
1973-11-25 12   12.4    97.1    994    1                
1973-11-25 15   12.5    97.2    994    1                
1973-11-25 18   12.6    97.3    994    1                
1973-11-25 21   12.7    97.4    994    1                
1973-11-26 00   12.7    97.5    994    1                
1973-11-26 03   12.8    97.7    994    1                
1973-11-26 06   12.7    97.9    994    1                
1973-11-26 09   12.6    98.1    994    1                
1973-11-26 12   12.5    98.3    994    1                
1973-11-26 15   12.4    98.5    994    1                
1973-11-26 18   12.3    98.7    994    1                
1973-11-26 21   12.2    98.9    994    1                
1973-11-27 00   12.0    99.1    994    1                
1973-11-27 03   11.9    99.3    994    1                
1973-11-27 06   11.8    99.5    994    1                
1973-11-27 09   11.7    99.7    994    1                
1973-11-27 12   11.6   100.0    994    1                
1973-11-27 15   11.5   100.3    994    1                
1973-11-27 18   11.4   100.6    994    1                
1973-11-27 21   11.4   100.9    994    1                
1973-11-28 00   11.5   101.3    994    1                
1973-11-28 03   11.7   101.6    993    1                
1973-11-28 06   12.0   101.8    991    1                
1973-11-28 09   12.3   101.9    990    1                
1973-11-28 12   12.7   102.0    990    1                
1973-11-28 15   13.0   102.0    990    1                
1973-11-28 18   13.4   102.0    989    1                
1973-11-28 21   13.7   102.0    989    1                
1973-11-29 00   14.0   102.0    988    1                
1973-11-29 03   14.3   102.1    986    1                
1973-11-29 06   14.5   102.1    984    2                
1973-11-29 09   14.7   102.2    983    2                
1973-11-29 12   14.9   102.2    983    2                
1973-11-29 15   15.0   102.3    983    2                
1973-11-29 18   15.1   102.4    982    2                
1973-11-29 21   15.2   102.4    982    2                
1973-11-30 00   15.3   102.5    981    2                
1973-11-30 03   15.4   102.7    982    2                
1973-11-30 06   15.6   102.9    981    2                
1973-11-30 09   15.8   103.1    982    2                
1973-11-30 12   15.9   103.4    986    1                
1973-11-30 15   15.8   103.7    987    1                
1973-11-30 18   15.7   103.9    986    1                
1973-11-30 21   15.6   104.1    986    1                
1973-12-01 00   15.5   104.2    988    1                
1973-12-01 03   15.4   104.2    988    1                
1973-12-01 06   15.2   104.1    987    1                
1973-12-01 09   15.0   103.9    988    1                
1973-12-01 12   14.9   103.7    992    1                
1973-12-01 15   14.9   103.5    993    1                
1973-12-01 18   14.9   103.3    993    1                
1973-12-01 21   15.0   103.1    992    1                
1973-12-02 00   15.0   102.9    994    1                
1973-12-02 03   15.1   102.6    994    1                
1973-12-02 06   15.1   102.3    992    1                
1973-12-02 09   15.2   102.0    993    1                
1973-12-02 12   15.3   101.7    994    1                
1973-12-02 15   15.4   101.4    993    1                
1973-12-02 18   15.5   101.0    992    1                
1973-12-02 21   15.6   100.6    993    1                
1973-12-03 00   15.8   100.2    994    1                
1973-12-03 03   15.9    99.9    994    1                
1973-12-03 06   16.0    99.6    994    1                
1973-12-03 09   16.0    99.3    994    1                
1973-12-03 12   16.1    98.9    994    1                
1973-12-03 15   16.1    98.6    994    1                
1973-12-03 18   16.1    98.3    994    1                
1973-12-03 21   16.2    97.9    994    1                
1973-12-04 00   16.2    97.5    994    1                
1973-12-04 03   16.2    97.0    994    1                
1973-12-04 06   16.2    96.4    994    1                
1973-12-04 09   16.2    95.8    995    1                
1973-12-04 12   16.2    95.0    999                     
1973-12-04 15   16.2    94.1   1002                     
1973-12-04 18   16.2    93.2   1001                     
1973-12-04 21   16.2    92.3   1001                     
1973-12-05 00   16.2    91.4   1003                     
1973-12-05 03   16.2    90.5   1003                     
1973-12-05 06   16.2    89.7   1001                     
1973-12-05 09   16.2    89.1   1001                     
1973-12-05 12   16.3    88.5   1003                     
1973-12-05 15   16.4    88.0   1003                     
1973-12-05 18   16.5    87.6   1002                     
1973-12-05 21   16.6    87.3   1002                     
1973-12-06 00   16.7    87.0   1003                     
1973-12-06 03   16.8    86.8   1003                     
1973-12-06 06   17.0    86.7   1002                     
1973-12-06 09   17.1    86.6   1001                     
1973-12-06 12   17.2    86.5   1003                     
1973-12-06 15   17.3    86.5   1004                     
1973-12-06 18   17.4    86.4   1004                     
1973-12-06 21   17.5    86.4   1005                     
1973-12-07 00   17.7    86.3   1005                     
1973-12-07 03   17.9    86.2   1005                     
1973-12-07 06   18.1    86.0   1004                     
1973-12-07 09   18.3    85.9   1003                     
1973-12-07 12   18.5    85.8   1005                     
1973-12-07 15   18.7    85.6   1007                     
1973-12-07 18   18.8    85.4   1006                     
1973-12-07 21   18.9    85.2   1007                     
1973-12-08 00   19.0    85.0   1008                     
Winds are 10-min average.

Tropical cyclone tracks developed by Michael Bath using data from the Bureau of Meteorology and Google Maps.


[Australian Severe Weather index] [Copyright Notice] [Email Contacts] [Search This Site] [Privacy Policy]
Document: tropical_cyclone_annie.htm Updated: 30 May 2013